createdAt,value
2019-02-22T00:00:10.435Z,11.19
2019-02-22T00:01:10.426Z,11.17
2019-02-22T00:02:10.418Z,11.18
2019-02-22T00:03:10.408Z,11.17
2019-02-22T00:04:10.398Z,11.12
2019-02-22T00:05:10.389Z,11.14
2019-02-22T00:06:10.380Z,11.14
2019-02-22T00:07:10.370Z,11.07
2019-02-22T00:08:10.362Z,11.08
2019-02-22T00:09:10.352Z,11.07
2019-02-22T00:10:10.344Z,11.00
2019-02-22T00:11:10.337Z,11.08
2019-02-22T00:12:10.323Z,11.02
2019-02-22T00:13:10.313Z,11.02
2019-02-22T00:14:10.305Z,10.99
2019-02-22T00:15:10.299Z,10.97
2019-02-22T00:16:10.286Z,10.96
2019-02-22T00:17:10.275Z,10.89
2019-02-22T00:18:10.266Z,10.97
2019-02-22T00:19:10.261Z,10.93
2019-02-22T00:20:10.248Z,10.99
2019-02-22T00:21:10.237Z,11.05
2019-02-22T00:22:10.229Z,11.00
2019-02-22T00:23:10.219Z,10.96
2019-02-22T00:24:10.208Z,10.89
2019-02-22T00:25:10.199Z,10.94
2019-02-22T00:26:11.156Z,10.92
2019-02-22T00:27:10.181Z,10.90
2019-02-22T00:28:10.171Z,10.89
2019-02-22T00:29:10.161Z,10.96
2019-02-22T00:30:10.154Z,10.94
2019-02-22T00:31:10.143Z,10.87
2019-02-22T00:32:10.138Z,10.93
2019-02-22T00:33:10.181Z,10.89
2019-02-22T00:34:10.157Z,10.92
2019-02-22T00:35:10.122Z,10.90
2019-02-22T00:36:10.095Z,10.99
2019-02-22T00:37:10.120Z,10.92
2019-02-22T00:38:10.078Z,10.87
2019-02-22T00:39:10.067Z,10.90
2019-02-22T00:40:10.057Z,10.90
2019-02-22T00:41:10.049Z,10.99
2019-02-22T00:42:10.038Z,10.97
2019-02-22T00:43:10.030Z,10.94
2019-02-22T00:44:10.031Z,10.97
2019-02-22T00:45:10.009Z,10.96
2019-02-22T00:46:10.001Z,10.94
2019-02-22T00:47:09.990Z,10.93
2019-02-22T00:48:09.980Z,10.94
2019-02-22T00:49:09.971Z,10.94
2019-02-22T00:50:09.962Z,10.87
2019-02-22T00:51:09.952Z,10.82
2019-02-22T00:52:09.941Z,10.92
2019-02-22T00:53:09.931Z,10.89
2019-02-22T00:54:09.925Z,10.90
2019-02-22T00:55:09.916Z,10.96
2019-02-22T00:56:09.903Z,10.96
2019-02-22T00:57:09.892Z,10.99
2019-02-22T00:58:09.884Z,11.05
2019-02-22T00:59:09.874Z,10.92
2019-02-22T01:00:09.865Z,11.02
2019-02-22T01:01:09.856Z,10.99
2019-02-22T01:02:09.845Z,11.00
2019-02-22T01:03:09.835Z,10.99
2019-02-22T01:04:09.833Z,10.94
2019-02-22T01:05:09.816Z,10.90
2019-02-22T01:06:09.807Z,10.96
2019-02-22T01:07:09.798Z,11.00
2019-02-22T01:08:09.788Z,10.86
2019-02-22T01:09:09.779Z,10.82
2019-02-22T01:10:09.770Z,10.87
2019-02-22T01:11:09.762Z,10.93
2019-02-22T01:12:09.752Z,10.92
2019-02-22T01:13:09.742Z,10.92
2019-02-22T01:14:09.732Z,10.89
2019-02-22T01:15:09.725Z,10.89
2019-02-22T01:16:09.713Z,10.81
2019-02-22T01:17:09.705Z,10.93
2019-02-22T01:18:09.694Z,10.86
2019-02-22T01:19:09.685Z,10.87
2019-02-22T01:20:09.676Z,10.94
2019-02-22T01:21:09.666Z,10.82
2019-02-22T01:22:09.657Z,10.89
2019-02-22T01:23:09.649Z,10.92
2019-02-22T01:24:09.641Z,10.93
2019-02-22T01:25:09.630Z,10.84
2019-02-22T01:26:09.619Z,10.84
2019-02-22T01:27:09.610Z,10.84
2019-02-22T01:28:09.601Z,10.87
2019-02-22T01:29:09.591Z,10.78
2019-02-22T01:30:09.581Z,10.81
2019-02-22T01:31:09.573Z,10.79
2019-02-22T01:32:09.563Z,10.87
2019-02-22T01:33:09.553Z,10.81
2019-02-22T01:34:09.544Z,10.82
2019-02-22T01:35:09.546Z,10.90
2019-02-22T01:36:09.525Z,10.90
2019-02-22T01:37:09.515Z,10.89
2019-02-22T01:38:09.539Z,10.79
2019-02-22T01:39:09.499Z,10.87
2019-02-22T01:40:09.487Z,10.89
2019-02-22T01:41:09.477Z,10.79
2019-02-22T01:42:09.468Z,10.78
2019-02-22T01:43:09.459Z,10.78
2019-02-22T01:44:09.449Z,10.81
2019-02-22T01:45:09.444Z,10.81
2019-02-22T01:46:09.430Z,10.81
2019-02-22T01:47:09.423Z,10.81
2019-02-22T01:48:09.411Z,10.81
2019-02-22T01:49:09.401Z,10.81
2019-02-22T01:50:09.393Z,10.82
2019-02-22T01:51:09.452Z,10.93
2019-02-22T01:52:09.372Z,10.78
2019-02-22T01:53:09.368Z,10.89
2019-02-22T01:54:09.422Z,10.78
2019-02-22T01:55:09.345Z,10.79
2019-02-22T01:56:09.341Z,10.89
2019-02-22T01:57:09.339Z,10.81
2019-02-22T01:58:09.317Z,10.81
2019-02-22T01:59:09.308Z,10.82
2019-02-22T02:00:09.299Z,10.75
2019-02-22T02:01:09.294Z,10.82
2019-02-22T02:02:09.282Z,10.79
2019-02-22T02:03:09.270Z,10.74
2019-02-22T02:04:09.260Z,10.76
2019-02-22T02:05:09.262Z,10.76
2019-02-22T02:06:09.242Z,10.82
2019-02-22T02:07:09.233Z,10.81
2019-02-22T02:08:09.223Z,10.84
2019-02-22T02:09:09.214Z,10.79
2019-02-22T02:10:09.205Z,10.74
2019-02-22T02:11:09.195Z,10.75
2019-02-22T02:12:09.185Z,10.75
2019-02-22T02:13:09.176Z,10.76
2019-02-22T02:14:09.167Z,10.76
2019-02-22T02:15:09.160Z,10.68
2019-02-22T02:16:09.151Z,10.74
2019-02-22T02:17:09.139Z,10.69
2019-02-22T02:18:09.129Z,10.76
2019-02-22T02:19:09.120Z,10.72
2019-02-22T02:20:09.161Z,10.69
2019-02-22T02:21:09.103Z,10.72
2019-02-22T02:22:09.091Z,10.78
2019-02-22T02:23:09.082Z,10.74
2019-02-22T02:24:09.071Z,10.71
2019-02-22T02:25:09.062Z,10.72
2019-02-22T02:26:09.054Z,10.75
2019-02-22T02:27:09.080Z,10.74
2019-02-22T02:28:09.033Z,10.69
2019-02-22T02:29:09.024Z,10.64
2019-02-22T02:30:09.021Z,10.69
2019-02-22T02:31:09.008Z,10.75
2019-02-22T02:32:08.996Z,10.72
2019-02-22T02:33:08.985Z,10.69
2019-02-22T02:34:08.976Z,10.79
2019-02-22T02:35:08.970Z,10.72
2019-02-22T02:36:08.958Z,10.67
2019-02-22T02:37:08.948Z,10.76
2019-02-22T02:38:08.940Z,10.67
2019-02-22T02:39:08.928Z,10.72
2019-02-22T02:40:08.921Z,10.69
2019-02-22T02:41:11.386Z,10.59
2019-02-22T02:42:08.898Z,10.72
2019-02-22T02:43:08.888Z,10.61
2019-02-22T02:44:08.879Z,10.71
2019-02-22T02:45:08.868Z,10.60
2019-02-22T02:46:08.859Z,10.57
2019-02-22T02:47:08.853Z,10.60
2019-02-22T02:48:08.841Z,10.54
2019-02-22T02:49:08.828Z,10.56
2019-02-22T02:50:08.822Z,10.54
2019-02-22T02:51:08.808Z,10.60
2019-02-22T02:52:08.799Z,10.56
2019-02-22T02:53:08.788Z,10.53
2019-02-22T02:54:08.779Z,10.54
2019-02-22T02:55:08.771Z,10.54
2019-02-22T02:56:08.758Z,10.57
2019-02-22T02:57:08.751Z,10.54
2019-02-22T02:58:08.741Z,10.48
2019-02-22T02:59:08.732Z,10.44
2019-02-22T03:00:08.717Z,10.48
2019-02-22T03:01:08.709Z,10.49
2019-02-22T03:02:08.700Z,10.49
2019-02-22T03:03:08.692Z,10.42
2019-02-22T03:04:08.679Z,10.49
2019-02-22T03:05:08.667Z,10.59
2019-02-22T03:06:08.658Z,10.48
2019-02-22T03:07:08.649Z,10.60
2019-02-22T03:08:08.636Z,10.59
2019-02-22T03:09:08.629Z,10.53
2019-02-22T03:10:08.622Z,10.51
2019-02-22T03:11:20.220Z,10.46
2019-02-22T03:12:08.597Z,10.49
2019-02-22T03:13:08.589Z,10.48
2019-02-22T03:14:08.578Z,10.41
2019-02-22T03:15:08.670Z,10.41
2019-02-22T03:16:08.557Z,10.37
2019-02-22T03:17:08.546Z,10.31
2019-02-22T03:18:08.537Z,10.37
2019-02-22T03:19:08.528Z,10.33
2019-02-22T03:20:08.516Z,10.34
2019-02-22T03:21:08.507Z,10.31
2019-02-22T03:22:08.497Z,10.34
2019-02-22T03:23:08.487Z,10.30
2019-02-22T03:24:08.480Z,10.35
2019-02-22T03:25:08.467Z,10.31
2019-02-22T03:26:08.456Z,10.34
2019-02-22T03:27:08.452Z,10.31
2019-02-22T03:28:08.434Z,10.31
2019-02-22T03:29:08.426Z,10.22
2019-02-22T03:30:08.415Z,10.23
2019-02-22T03:31:08.502Z,10.22
2019-02-22T03:32:08.419Z,10.26
2019-02-22T03:33:08.393Z,10.22
2019-02-22T03:34:08.389Z,10.23
2019-02-22T03:35:08.363Z,10.19
2019-02-22T03:36:08.354Z,10.20
2019-02-22T03:37:08.343Z,10.17
2019-02-22T03:38:08.367Z,10.19
2019-02-22T03:39:08.324Z,10.19
2019-02-22T03:40:08.311Z,10.20
2019-02-22T03:41:08.302Z,10.16
2019-02-22T03:42:08.294Z,10.16
2019-02-22T03:43:08.288Z,10.20
2019-02-22T03:44:08.272Z,10.19
2019-02-22T03:45:08.264Z,10.12
2019-02-22T03:46:08.302Z,10.07
2019-02-22T03:47:08.241Z,10.13
2019-02-22T03:48:08.231Z,10.13
2019-02-22T03:49:08.219Z,10.02
2019-02-22T03:50:08.218Z,10.01
2019-02-22T03:51:08.200Z,9.97
2019-02-22T03:52:08.189Z,9.95
2019-02-22T03:53:08.178Z,9.99
2019-02-22T03:54:08.169Z,9.92
2019-02-22T03:55:08.159Z,9.92
2019-02-22T03:56:08.154Z,9.89
2019-02-22T03:57:08.138Z,9.84
2019-02-22T03:58:08.128Z,9.86
2019-02-22T03:59:08.117Z,9.89
2019-02-22T04:00:08.106Z,9.97
2019-02-22T04:01:08.095Z,9.99
2019-02-22T04:02:08.084Z,9.92
2019-02-22T04:03:08.083Z,9.98
2019-02-22T04:04:08.065Z,9.83
2019-02-22T04:05:08.053Z,9.89
2019-02-22T04:06:08.042Z,9.94
2019-02-22T04:07:08.035Z,9.89
2019-02-22T04:08:08.021Z,9.89
2019-02-22T04:09:08.013Z,10.04
2019-02-22T04:10:08.001Z,10.01
2019-02-22T04:11:07.990Z,9.99
2019-02-22T04:12:07.979Z,9.99
2019-02-22T04:13:07.970Z,10.05
2019-02-22T04:14:07.961Z,10.04
2019-02-22T04:15:07.953Z,10.04
2019-02-22T04:16:07.942Z,9.95
2019-02-22T04:17:07.931Z,9.99
2019-02-22T04:18:07.920Z,9.98
2019-02-22T04:19:07.908Z,9.98
2019-02-22T04:20:07.900Z,9.97
2019-02-22T04:21:07.887Z,10.04
2019-02-22T04:22:07.880Z,9.99
2019-02-22T04:23:07.867Z,10.01
2019-02-22T04:24:07.856Z,9.99
2019-02-22T04:25:07.847Z,9.95
2019-02-22T04:26:07.836Z,9.98
2019-02-22T04:27:07.828Z,10.04
2019-02-22T04:28:07.816Z,10.01
2019-02-22T04:29:07.808Z,10.09
2019-02-22T04:30:07.797Z,10.01
2019-02-22T04:31:07.786Z,10.05
2019-02-22T04:32:07.777Z,10.04
2019-02-22T04:33:07.767Z,10.07
2019-02-22T04:34:07.757Z,9.99
2019-02-22T04:35:07.747Z,9.97
2019-02-22T04:36:07.735Z,10.05
2019-02-22T04:37:07.725Z,9.98
2019-02-22T04:38:07.715Z,9.94
2019-02-22T04:39:07.705Z,9.86
2019-02-22T04:40:07.699Z,9.87
2019-02-22T04:41:07.690Z,9.98
2019-02-22T04:42:07.675Z,9.86
2019-02-22T04:43:07.665Z,9.80
2019-02-22T04:44:07.654Z,9.79
2019-02-22T04:45:07.647Z,9.80
2019-02-22T04:46:07.656Z,9.76
2019-02-22T04:47:07.624Z,9.73
2019-02-22T04:48:07.613Z,9.69
2019-02-22T04:49:07.603Z,9.73
2019-02-22T04:50:07.593Z,9.61
2019-02-22T04:51:07.587Z,9.64
2019-02-22T04:52:07.572Z,9.62
2019-02-22T04:53:07.566Z,9.64
2019-02-22T04:54:07.551Z,9.64
2019-02-22T04:55:07.544Z,9.66
2019-02-22T04:56:07.534Z,9.68
2019-02-22T04:57:07.521Z,9.62
2019-02-22T04:58:07.511Z,9.65
2019-02-22T04:59:07.501Z,9.68
2019-02-22T05:00:07.490Z,9.68
2019-02-22T05:01:07.479Z,9.66
2019-02-22T05:02:07.469Z,9.64
2019-02-22T05:03:07.460Z,9.65
2019-02-22T05:04:07.449Z,9.66
2019-02-22T05:05:07.439Z,9.68
2019-02-22T05:06:07.430Z,9.69
2019-02-22T05:07:07.420Z,9.62
2019-02-22T05:08:07.407Z,9.62
2019-02-22T05:09:07.399Z,9.66
2019-02-22T05:10:07.388Z,9.65
2019-02-22T05:11:07.377Z,9.65
2019-02-22T05:12:10.781Z,9.65
2019-02-22T05:13:07.356Z,9.58
2019-02-22T05:14:07.346Z,9.64
2019-02-22T05:15:12.565Z,9.64
2019-02-22T05:16:07.327Z,9.62
2019-02-22T05:17:07.315Z,9.56
2019-02-22T05:18:07.308Z,9.58
2019-02-22T05:19:07.297Z,9.58
2019-02-22T05:20:07.284Z,9.65
2019-02-22T05:21:07.274Z,9.64
2019-02-22T05:22:07.264Z,9.56
2019-02-22T05:23:07.630Z,9.68
2019-02-22T05:24:07.242Z,9.61
2019-02-22T05:25:07.233Z,9.64
2019-02-22T05:26:07.225Z,9.64
2019-02-22T05:27:07.212Z,9.56
2019-02-22T05:28:07.201Z,9.66
2019-02-22T05:29:07.193Z,9.56
2019-02-22T05:30:07.182Z,9.54
2019-02-22T05:31:07.173Z,9.59
2019-02-22T05:32:07.159Z,9.56
2019-02-22T05:33:07.150Z,9.50
2019-02-22T05:34:07.139Z,9.54
2019-02-22T05:35:07.129Z,9.51
2019-02-22T05:36:07.135Z,9.55
2019-02-22T05:37:07.107Z,9.58
2019-02-22T05:38:07.097Z,9.54
2019-02-22T05:39:18.476Z,9.47
2019-02-22T05:40:07.077Z,9.41
2019-02-22T05:41:07.068Z,9.48
2019-02-22T05:42:07.058Z,9.48
2019-02-22T05:43:07.044Z,9.50
2019-02-22T05:44:07.032Z,9.50
2019-02-22T05:45:07.021Z,9.48
2019-02-22T05:46:07.017Z,9.47
2019-02-22T05:47:07.001Z,9.54
2019-02-22T05:48:07.013Z,9.50
2019-02-22T05:49:06.978Z,9.54
2019-02-22T05:50:06.968Z,9.51
2019-02-22T05:51:06.958Z,9.58
2019-02-22T05:52:06.955Z,9.61
2019-02-22T05:53:06.936Z,9.51
2019-02-22T05:54:06.935Z,9.51
2019-02-22T05:55:06.915Z,9.55
2019-02-22T05:56:06.906Z,9.58
2019-02-22T05:57:06.894Z,9.55
2019-02-22T05:58:06.882Z,9.51
2019-02-22T05:59:06.872Z,9.58
2019-02-22T06:00:06.871Z,9.50
2019-02-22T06:01:07.077Z,9.54
2019-02-22T06:02:06.839Z,9.55
2019-02-22T06:03:06.830Z,9.51
2019-02-22T06:04:06.818Z,9.44
2019-02-22T06:05:06.808Z,9.43
2019-02-22T06:06:06.796Z,9.46
2019-02-22T06:07:06.786Z,9.40
2019-02-22T06:08:08.813Z,9.39
2019-02-22T06:09:06.764Z,9.41
2019-02-22T06:10:06.757Z,9.54
2019-02-22T06:11:06.745Z,9.44
2019-02-22T06:12:06.742Z,9.48
2019-02-22T06:13:06.725Z,9.46
2019-02-22T06:14:06.712Z,9.58
2019-02-22T06:15:06.707Z,9.51
2019-02-22T06:16:06.689Z,9.51
2019-02-22T06:17:14.226Z,9.58
2019-02-22T06:18:06.669Z,9.50
2019-02-22T06:19:06.658Z,9.48
2019-02-22T06:20:06.648Z,9.41
2019-02-22T06:21:06.637Z,9.50
2019-02-22T06:22:06.627Z,9.43
2019-02-22T06:23:06.615Z,9.51
2019-02-22T06:24:06.604Z,9.50
2019-02-22T06:25:06.595Z,9.50
2019-02-22T06:26:06.585Z,9.40
2019-02-22T06:27:06.574Z,9.46
2019-02-22T06:28:06.562Z,9.51
2019-02-22T06:29:06.552Z,9.46
2019-02-22T06:30:06.541Z,9.50
2019-02-22T06:31:06.531Z,9.40
2019-02-22T06:32:06.528Z,9.41
2019-02-22T06:33:06.510Z,9.39
2019-02-22T06:34:06.499Z,9.46
2019-02-22T06:35:08.784Z,9.47
2019-02-22T06:36:06.478Z,9.50
2019-02-22T06:37:06.468Z,9.37
2019-02-22T06:38:06.461Z,9.43
2019-02-22T06:39:06.449Z,9.50
2019-02-22T06:40:06.438Z,9.46
2019-02-22T06:41:06.429Z,9.48
2019-02-22T06:42:06.414Z,9.48
2019-02-22T06:43:06.404Z,9.54
2019-02-22T06:44:06.392Z,9.48
2019-02-22T06:45:06.383Z,9.51
2019-02-22T06:46:06.372Z,9.41
2019-02-22T06:47:06.368Z,9.41
2019-02-22T06:48:06.351Z,9.43
2019-02-22T06:49:06.339Z,9.37
2019-02-22T06:50:06.338Z,9.44
2019-02-22T06:51:06.319Z,9.41
2019-02-22T06:52:06.308Z,9.43
2019-02-22T06:53:06.298Z,9.36
2019-02-22T06:54:06.288Z,9.48
2019-02-22T06:55:06.277Z,9.46
2019-02-22T06:56:06.266Z,9.41
2019-02-22T06:57:06.256Z,9.40
2019-02-22T06:58:06.246Z,9.40
2019-02-22T06:59:06.235Z,9.43
2019-02-22T07:00:06.225Z,9.39
2019-02-22T07:01:06.213Z,9.40
2019-02-22T07:02:06.206Z,9.40
2019-02-22T07:03:06.195Z,9.40
2019-02-22T07:04:06.261Z,9.37
2019-02-22T07:05:06.171Z,9.39
2019-02-22T07:06:06.164Z,9.41
2019-02-22T07:07:06.153Z,9.37
2019-02-22T07:08:06.142Z,9.36
2019-02-22T07:09:06.155Z,9.41
2019-02-22T07:10:06.119Z,9.41
2019-02-22T07:11:06.108Z,9.37
2019-02-22T07:12:06.098Z,9.43
2019-02-22T07:13:06.089Z,9.41
2019-02-22T07:14:06.077Z,9.40
2019-02-22T07:15:06.068Z,9.39
2019-02-22T07:16:06.055Z,9.41
2019-02-22T07:17:06.044Z,9.37
2019-02-22T07:18:06.034Z,9.36
2019-02-22T07:19:06.024Z,9.40
2019-02-22T07:20:06.013Z,9.39
2019-02-22T07:21:06.002Z,9.40
2019-02-22T07:22:05.993Z,9.48
2019-02-22T07:23:05.981Z,9.48
2019-02-22T07:24:05.972Z,9.47
2019-02-22T07:25:05.960Z,9.50
2019-02-22T07:26:05.953Z,9.43
2019-02-22T07:27:05.940Z,9.46
2019-02-22T07:28:05.929Z,9.44
2019-02-22T07:29:05.918Z,9.46
2019-02-22T07:30:05.913Z,9.48
2019-02-22T07:31:05.898Z,9.48
2019-02-22T07:32:06.481Z,9.48
2019-02-22T07:33:05.876Z,9.48
2019-02-22T07:34:05.880Z,9.39
2019-02-22T07:35:05.863Z,9.40
2019-02-22T07:36:05.844Z,9.40
2019-02-22T07:37:05.834Z,9.40
2019-02-22T07:38:05.874Z,9.48
2019-02-22T07:39:05.813Z,9.43
2019-02-22T07:40:05.802Z,9.47
2019-02-22T07:41:05.792Z,9.48
2019-02-22T07:42:05.782Z,9.56
2019-02-22T07:43:08.308Z,9.61
2019-02-22T07:44:05.759Z,9.54
2019-02-22T07:45:05.749Z,9.56
2019-02-22T07:46:05.739Z,9.50
2019-02-22T07:47:05.729Z,9.47
2019-02-22T07:48:05.720Z,9.48
2019-02-22T07:49:05.708Z,9.46
2019-02-22T07:50:05.696Z,9.54
2019-02-22T07:51:05.686Z,9.43
2019-02-22T07:52:05.677Z,9.43
2019-02-22T07:53:05.664Z,9.44
2019-02-22T07:54:05.654Z,9.56
2019-02-22T07:55:05.646Z,9.55
2019-02-22T07:56:05.632Z,9.59
2019-02-22T07:57:05.632Z,9.56
2019-02-22T07:58:05.612Z,9.58
2019-02-22T07:59:05.607Z,9.59
2019-02-22T08:00:05.590Z,9.54
2019-02-22T08:01:05.586Z,9.56
2019-02-22T08:02:05.569Z,9.54
2019-02-22T08:03:05.559Z,9.56
2019-02-22T08:04:05.547Z,9.51
2019-02-22T08:05:05.540Z,9.47
2019-02-22T08:06:05.529Z,9.54
2019-02-22T08:07:05.519Z,9.51
2019-02-22T08:08:05.504Z,9.55
2019-02-22T08:09:05.495Z,9.54
2019-02-22T08:10:05.500Z,9.51
2019-02-22T08:11:05.482Z,9.54
2019-02-22T08:12:05.462Z,9.54
2019-02-22T08:13:05.452Z,9.59
2019-02-22T08:14:07.810Z,9.51
2019-02-22T08:15:05.434Z,9.55
2019-02-22T08:16:05.421Z,9.54
2019-02-22T08:17:05.410Z,9.54
2019-02-22T08:18:05.401Z,9.51
2019-02-22T08:19:05.389Z,9.56
2019-02-22T08:20:05.379Z,9.55
2019-02-22T08:21:05.368Z,9.59
2019-02-22T08:22:05.358Z,9.54
2019-02-22T08:23:05.348Z,9.58
2019-02-22T08:24:05.336Z,9.58
2019-02-22T08:25:05.326Z,9.55
2019-02-22T08:26:05.320Z,9.58
2019-02-22T08:27:05.306Z,9.66
2019-02-22T08:28:05.294Z,9.65
2019-02-22T08:29:05.284Z,9.65
2019-02-22T08:30:05.274Z,9.68
2019-02-22T08:31:05.264Z,9.59
2019-02-22T08:32:05.252Z,9.59
2019-02-22T08:33:05.252Z,9.56
2019-02-22T08:34:05.232Z,9.56
2019-02-22T08:35:05.222Z,9.56
2019-02-22T08:36:05.211Z,9.58
2019-02-22T08:37:05.202Z,9.61
2019-02-22T08:38:05.190Z,9.61
2019-02-22T08:39:05.180Z,9.64
2019-02-22T08:40:05.169Z,9.66
2019-02-22T08:41:05.159Z,9.66
2019-02-22T08:42:05.149Z,9.69
2019-02-22T08:43:05.141Z,9.65
2019-02-22T08:44:05.129Z,9.64
2019-02-22T08:45:05.118Z,9.64
2019-02-22T08:46:05.108Z,9.68
2019-02-22T08:47:05.098Z,9.64
2019-02-22T08:48:05.088Z,9.65
2019-02-22T08:49:05.077Z,9.69
2019-02-22T08:50:05.117Z,9.66
2019-02-22T08:51:05.145Z,9.74
2019-02-22T08:52:05.049Z,9.76
2019-02-22T08:53:05.037Z,9.77
2019-02-22T08:54:05.027Z,9.76
2019-02-22T08:55:05.016Z,9.76
2019-02-22T08:56:05.008Z,9.74
2019-02-22T08:57:04.997Z,9.74
2019-02-22T08:58:04.987Z,9.65
2019-02-22T08:59:04.978Z,9.64
2019-02-22T09:00:04.966Z,9.77
2019-02-22T09:01:05.006Z,9.72
2019-02-22T09:02:04.947Z,9.66
2019-02-22T09:03:04.937Z,9.77
2019-02-22T09:04:04.927Z,9.84
2019-02-22T09:05:04.918Z,9.79
2019-02-22T09:06:04.907Z,9.79
2019-02-22T09:07:04.897Z,9.82
2019-02-22T09:08:04.887Z,9.79
2019-02-22T09:09:04.878Z,9.84
2019-02-22T09:10:04.892Z,9.92
2019-02-22T09:11:04.857Z,9.83
2019-02-22T09:12:04.846Z,9.84
2019-02-22T09:13:04.839Z,9.92
2019-02-22T09:14:04.827Z,9.97
2019-02-22T09:15:04.818Z,9.97
2019-02-22T09:16:04.807Z,9.92
2019-02-22T09:17:04.797Z,9.98
2019-02-22T09:18:04.787Z,9.89
2019-02-22T09:19:04.777Z,9.91
2019-02-22T09:20:04.767Z,9.99
2019-02-22T09:21:04.762Z,9.86
2019-02-22T09:22:04.748Z,9.92
2019-02-22T09:23:07.438Z,9.73
2019-02-22T09:24:04.728Z,9.89
2019-02-22T09:25:04.720Z,9.82
2019-02-22T09:26:04.709Z,9.87
2019-02-22T09:27:04.701Z,9.86
2019-02-22T09:28:04.692Z,9.87
2019-02-22T09:29:04.682Z,9.84
2019-02-22T09:30:04.670Z,9.83
2019-02-22T09:31:04.660Z,9.80
2019-02-22T09:32:04.651Z,9.87
2019-02-22T09:33:04.643Z,9.95
2019-02-22T09:34:04.631Z,9.84
2019-02-22T09:35:04.621Z,9.82
2019-02-22T09:36:04.612Z,9.84
2019-02-22T09:37:04.602Z,9.87
2019-02-22T09:38:04.592Z,9.89
2019-02-22T09:39:04.582Z,9.97
2019-02-22T09:40:04.571Z,9.94
2019-02-22T09:41:04.561Z,9.98
2019-02-22T09:42:04.552Z,9.91
2019-02-22T09:43:04.542Z,9.94
2019-02-22T09:44:04.532Z,9.89
2019-02-22T09:45:04.523Z,9.86
2019-02-22T09:46:04.514Z,10.02
2019-02-22T09:47:04.504Z,9.86
2019-02-22T09:48:04.494Z,9.86
2019-02-22T09:49:04.484Z,9.91
2019-02-22T09:50:04.474Z,9.87
2019-02-22T09:51:04.468Z,9.92
2019-02-22T09:52:04.457Z,10.04
2019-02-22T09:53:04.445Z,10.01
2019-02-22T09:54:04.436Z,9.98
2019-02-22T09:55:04.427Z,10.10
2019-02-22T09:56:04.416Z,10.07
2019-02-22T09:57:04.411Z,10.07
2019-02-22T09:58:04.402Z,9.99
2019-02-22T09:59:04.398Z,10.19
2019-02-22T10:00:04.379Z,10.16
2019-02-22T10:01:04.371Z,10.16
2019-02-22T10:02:04.360Z,10.17
2019-02-22T10:03:04.351Z,10.13
2019-02-22T10:04:04.340Z,10.20
2019-02-22T10:05:04.332Z,10.30
2019-02-22T10:06:04.322Z,10.31
2019-02-22T10:07:04.316Z,10.23
2019-02-22T10:08:04.302Z,10.15
2019-02-22T10:09:04.296Z,10.15
2019-02-22T10:10:04.283Z,10.19
2019-02-22T10:11:04.275Z,10.10
2019-02-22T10:12:04.264Z,10.01
2019-02-22T10:13:04.255Z,10.04
2019-02-22T10:14:06.921Z,10.01
2019-02-22T10:15:04.237Z,10.09
2019-02-22T10:16:04.227Z,10.17
2019-02-22T10:17:04.223Z,10.20
2019-02-22T10:18:04.217Z,10.16
2019-02-22T10:19:04.200Z,10.10
2019-02-22T10:20:04.190Z,10.12
2019-02-22T10:21:04.180Z,10.13
2019-02-22T10:22:04.177Z,10.15
2019-02-22T10:23:04.163Z,9.98
2019-02-22T10:24:04.152Z,10.04
2019-02-22T10:25:04.143Z,10.16
2019-02-22T10:26:04.134Z,10.15
2019-02-22T10:27:04.127Z,10.15
2019-02-22T10:28:04.115Z,10.16
2019-02-22T10:29:04.106Z,10.16
2019-02-22T10:30:04.101Z,10.10
2019-02-22T10:31:04.088Z,10.09
2019-02-22T10:32:04.082Z,10.13
2019-02-22T10:33:04.068Z,10.28
2019-02-22T10:34:04.065Z,10.20
2019-02-22T10:35:04.051Z,10.25
2019-02-22T10:36:04.043Z,10.12
2019-02-22T10:37:04.031Z,10.19
2019-02-22T10:38:04.023Z,10.30
2019-02-22T10:39:06.015Z,10.33
2019-02-22T10:40:04.004Z,10.30
2019-02-22T10:41:03.995Z,10.17
2019-02-22T10:42:03.986Z,10.10
2019-02-22T10:43:03.980Z,10.16
2019-02-22T10:44:03.970Z,10.23
2019-02-22T10:45:03.959Z,10.23
2019-02-22T10:46:03.953Z,10.33
2019-02-22T10:47:03.940Z,10.31
2019-02-22T10:48:03.930Z,10.33
2019-02-22T10:49:03.942Z,10.38
2019-02-22T10:50:03.913Z,10.49
2019-02-22T10:51:03.904Z,10.60
2019-02-22T10:52:03.894Z,10.71
2019-02-22T10:53:03.894Z,10.59
2019-02-22T10:54:03.881Z,10.60
2019-02-22T10:55:03.868Z,10.60
2019-02-22T10:56:03.857Z,10.67
2019-02-22T10:57:03.851Z,10.60
2019-02-22T10:58:03.840Z,10.60
2019-02-22T10:59:03.831Z,10.71
2019-02-22T11:00:03.828Z,10.57
2019-02-22T11:01:03.813Z,10.56
2019-02-22T11:02:03.815Z,10.59
2019-02-22T11:03:03.796Z,10.56
2019-02-22T11:04:03.787Z,10.60
2019-02-22T11:05:03.779Z,10.53
2019-02-22T11:06:03.770Z,10.63
2019-02-22T11:07:03.762Z,10.67
2019-02-22T11:08:03.751Z,10.51
2019-02-22T11:09:03.744Z,10.59
2019-02-22T11:10:03.735Z,10.71
2019-02-22T11:11:03.727Z,10.69
2019-02-22T11:12:03.797Z,10.67
2019-02-22T11:13:03.708Z,10.56
2019-02-22T11:14:03.699Z,10.46
2019-02-22T11:15:03.690Z,10.44
2019-02-22T11:16:03.681Z,10.44
2019-02-22T11:17:03.672Z,10.48
2019-02-22T11:18:03.664Z,10.46
2019-02-22T11:19:03.656Z,10.57
2019-02-22T11:20:03.646Z,10.57
2019-02-22T11:21:03.637Z,10.63
2019-02-22T11:22:03.628Z,10.53
2019-02-22T11:23:03.619Z,10.68
2019-02-22T11:24:03.609Z,10.71
2019-02-22T11:25:03.604Z,10.63
2019-02-22T11:26:03.592Z,10.57
2019-02-22T11:27:03.587Z,10.48
2019-02-22T11:28:03.574Z,10.41
2019-02-22T11:29:03.565Z,10.46
2019-02-22T11:30:03.557Z,10.41
2019-02-22T11:31:03.551Z,10.48
2019-02-22T11:32:03.541Z,10.48
2019-02-22T11:33:03.530Z,10.56
2019-02-22T11:34:03.525Z,10.60
2019-02-22T11:35:03.511Z,10.54
2019-02-22T11:36:03.507Z,10.53
2019-02-22T11:37:03.494Z,10.57
2019-02-22T11:38:03.485Z,10.60
2019-02-22T11:39:03.495Z,10.69
2019-02-22T11:40:03.466Z,10.53
2019-02-22T11:41:03.457Z,10.71
2019-02-22T11:42:03.452Z,10.68
2019-02-22T11:43:03.443Z,10.75
2019-02-22T11:44:03.431Z,10.96
2019-02-22T11:45:03.421Z,11.04
2019-02-22T11:46:03.413Z,11.08
2019-02-22T11:47:03.404Z,11.00
2019-02-22T11:48:09.224Z,10.99
2019-02-22T11:49:03.386Z,11.00
2019-02-22T11:50:03.378Z,10.94
2019-02-22T11:51:03.370Z,10.99
2019-02-22T11:52:03.360Z,11.02
2019-02-22T11:53:03.352Z,10.97
2019-02-22T11:54:03.343Z,10.92
2019-02-22T11:55:03.335Z,10.94
2019-02-22T11:56:03.326Z,10.97
2019-02-22T11:57:03.317Z,11.00
2019-02-22T11:58:03.310Z,11.08
2019-02-22T11:59:03.302Z,11.05
2019-02-22T12:00:03.295Z,11.12
2019-02-22T12:01:03.933Z,11.12
2019-02-22T12:02:03.276Z,10.96
2019-02-22T12:03:15.878Z,11.00
2019-02-22T12:04:03.260Z,10.96
2019-02-22T12:05:03.248Z,10.93
2019-02-22T12:06:03.240Z,10.96
2019-02-22T12:07:03.232Z,10.93
2019-02-22T12:08:03.680Z,10.90
2019-02-22T12:09:03.215Z,10.92
2019-02-22T12:10:03.218Z,10.86
2019-02-22T12:11:03.197Z,10.87
2019-02-22T12:12:03.188Z,10.93
2019-02-22T12:13:03.184Z,10.86
2019-02-22T12:14:03.171Z,10.90
2019-02-22T12:15:03.162Z,10.93
2019-02-22T12:16:03.154Z,10.99
2019-02-22T12:17:03.145Z,11.00
2019-02-22T12:18:03.138Z,10.93
2019-02-22T12:19:03.128Z,10.97
2019-02-22T12:20:03.118Z,11.10
2019-02-22T12:21:03.109Z,11.08
2019-02-22T12:22:03.103Z,11.07
2019-02-22T12:23:03.095Z,11.04
2019-02-22T12:24:03.088Z,11.07
2019-02-22T12:25:03.075Z,11.12
2019-02-22T12:26:03.067Z,11.07
2019-02-22T12:27:03.059Z,11.07
2019-02-22T12:28:03.049Z,11.18
2019-02-22T12:29:03.042Z,11.18
2019-02-22T12:30:03.037Z,11.23
2019-02-22T12:31:03.031Z,11.29
2019-02-22T12:32:03.015Z,11.40
2019-02-22T12:33:03.009Z,11.41
2019-02-22T12:34:03.002Z,11.33
2019-02-22T12:35:02.991Z,11.43
2019-02-22T12:36:02.982Z,11.37
2019-02-22T12:37:02.975Z,11.40
2019-02-22T12:38:02.965Z,11.32
2019-02-22T12:39:02.957Z,11.22
2019-02-22T12:40:02.949Z,11.17
2019-02-22T12:41:02.940Z,11.18
2019-02-22T12:42:02.932Z,11.19
2019-02-22T12:43:02.927Z,11.26
2019-02-22T12:44:02.924Z,11.33
2019-02-22T12:45:03.636Z,11.36
2019-02-22T12:46:02.899Z,11.37
2019-02-22T12:47:02.891Z,11.43
2019-02-22T12:48:02.882Z,11.40
2019-02-22T12:49:02.874Z,11.41
2019-02-22T12:50:02.876Z,11.36
2019-02-22T12:51:02.858Z,11.47
2019-02-22T12:52:02.852Z,11.51
2019-02-22T12:53:02.840Z,11.57
2019-02-22T12:54:02.845Z,11.47
2019-02-22T12:55:02.825Z,11.51
2019-02-22T12:56:02.819Z,11.51
2019-02-22T12:57:02.831Z,11.57
2019-02-22T12:58:02.799Z,11.60
2019-02-22T12:59:02.791Z,11.62
2019-02-22T13:00:02.782Z,11.60
2019-02-22T13:01:02.775Z,11.68
2019-02-22T13:02:02.765Z,11.72
2019-02-22T13:03:02.785Z,11.83